KLKR

Lancaster County-Mc Whirter Field Airport

Lancaster, South Carolina, USA
METAR KLKR 210655Z AUTO 00000KT 10SM CLR 19/19 A3014 RMK AO2
Observed Flight Rules
May-21 @ 06:55 UTC (21 minutes ago) Visual Flight Rules
Visibility Clouds
10 miles
  • Clear skies
Temperatures Readings
Current 19°C / 66°F
Dewpoint 19°C / 66°F
Humidity 100%
Altimeter 30.14" Hg
Pressure 1021 hPa
Elevation 149
METAR KLKR 210655Z AUTO 00000KT 10SM CLR 19/19 A3014 RMK AO2
Observed Flight Rules
May-21 @ 06:55 UTC
(21 minutes ago)
VFR
Clouds
  • Clear skies
Temperature Dewpoint
19°C / 66°F 19°C / 66°F
Humidity Altimeter Pressure
100% 30.14" Hg 1021 hPa